Time;durP1;ratioP1;P1;durP2;ratioP2;P2;SDS_P1;SDS_P2;PMS_P1;PMS_P2;Temp;Humidity;BMP_temperature;BMP_pressure;BME280_temperature;BME280_humidity;BME280_pressure;Samples;Min_cycle;Max_cycle;Signal;HPM_P1;HPM_P2
2023/06/07 00:01:18;;;;;;;5.80;3.50;;;;;;;18.32;54.13;99823.52;107254;1258;60787;-40
2023/06/07 00:03:47;;;;;;;6.30;3.70;;;;;;;18.32;54.16;99822.41;107221;1258;60313;-40
2023/06/07 00:06:16;;;;;;;8.40;3.70;;;;;;;18.30;54.14;99822.19;107199;1259;73862;-40
2023/06/07 00:08:44;;;;;;;6.20;3.50;;;;;;;18.29;54.71;99820.00;107075;1259;67020;-40
2023/06/07 00:11:12;;;;;;;4.80;3.30;;;;;;;18.28;55.14;99822.28;107053;1257;73092;-40
2023/06/07 00:13:40;;;;;;;4.70;3.30;;;;;;;18.26;55.15;99823.77;107079;1260;60349;-40
2023/06/07 00:16:08;;;;;;;7.00;3.60;;;;;;;18.25;54.55;99824.57;107071;1260;60403;-40
2023/06/07 00:18:35;;;;;;;5.80;3.10;;;;;;;18.23;53.55;99823.08;107061;1258;72644;-40
2023/06/07 00:21:04;;;;;;;5.60;3.90;;;;;;;18.22;53.20;99820.59;107183;1256;68250;-40
2023/06/07 00:23:32;;;;;;;5.50;3.20;;;;;;;18.22;53.24;99822.23;107239;1260;71438;-40
2023/06/07 00:26:00;;;;;;;7.30;3.50;;;;;;;18.20;53.26;99827.89;107196;1256;60400;-40
2023/06/07 00:28:28;;;;;;;4.90;3.10;;;;;;;18.18;52.94;99824.21;107252;1257;60036;-40
2023/06/07 00:30:56;;;;;;;5.10;3.00;;;;;;;18.18;53.22;99824.45;107061;1257;73836;-40
2023/06/07 00:33:24;;;;;;;5.20;3.30;;;;;;;18.17;53.59;99825.77;107080;1258;67600;-40
2023/06/07 00:35:52;;;;;;;6.80;3.50;;;;;;;18.16;53.58;99825.31;107085;1256;72687;-40
2023/06/07 00:38:19;;;;;;;5.90;3.20;;;;;;;18.14;53.15;99821.96;107229;1260;60066;-41
2023/06/07 00:40:47;;;;;;;5.10;2.90;;;;;;;18.11;53.59;99821.34;107280;1257;60367;-40
2023/06/07 00:43:15;;;;;;;4.20;3.20;;;;;;;18.10;54.16;99824.56;107139;1255;73854;-39
2023/06/07 00:45:42;;;;;;;4.60;3.40;;;;;;;18.09;53.98;99828.27;107348;1259;67567;-40
2023/06/07 00:48:10;;;;;;;5.30;3.40;;;;;;;18.07;54.45;99825.59;107274;1257;72695;-40
2023/06/07 00:50:40;;;;;;;6.70;3.30;;;;;;;18.07;55.02;99825.11;107287;1262;60303;-40
2023/06/07 00:53:08;;;;;;;3.80;3.10;;;;;;;18.07;55.82;99825.04;107306;1257;60335;-40
2023/06/07 00:55:36;;;;;;;5.70;3.30;;;;;;;18.07;56.32;99823.23;107190;1257;72636;-40
2023/06/07 00:58:05;;;;;;;5.20;3.40;;;;;;;18.06;56.60;99823.09;107313;1257;66635;-39
2023/06/07 01:00:33;;;;;;;6.70;3.40;;;;;;;18.05;56.54;99823.33;107348;1260;72663;-40
2023/06/07 01:03:01;;;;;;;6.30;3.90;;;;;;;18.04;56.54;99821.30;107120;1257;60330;-40
2023/06/07 01:05:30;;;;;;;4.10;3.50;;;;;;;18.04;56.66;99822.23;107280;1254;60287;-40
2023/06/07 01:07:58;;;;;;;4.90;3.60;;;;;;;18.04;56.91;99827.02;107141;1254;72540;-40
2023/06/07 01:10:26;;;;;;;5.00;3.70;;;;;;;18.05;57.75;99829.60;107312;1260;67560;-39
2023/06/07 01:12:54;;;;;;;5.90;3.60;;;;;;;18.05;58.14;99827.48;107333;1260;71362;-39
2023/06/07 01:15:23;;;;;;;4.50;3.20;;;;;;;18.06;58.61;99830.00;107279;1254;60380;-40
2023/06/07 01:17:51;;;;;;;6.50;3.20;;;;;;;18.10;58.67;99829.26;107326;1254;60223;-39
2023/06/07 01:20:22;;;;;;;6.10;3.10;;;;;;;18.18;58.45;99829.54;107234;1260;73918;-39
2023/06/07 01:22:56;;;;;;;6.10;3.10;;;;;;;18.23;58.94;99831.16;107203;1254;67578;-40
2023/06/07 01:25:25;;;;;;;5.30;3.20;;;;;;;18.27;58.47;99832.25;107160;1262;71408;-40
2023/06/07 01:27:55;;;;;;;10.20;3.60;;;;;;;18.30;57.62;99834.42;107162;1256;60609;-40
2023/06/07 01:30:23;;;;;;;7.40;3.70;;;;;;;18.33;57.21;99824.30;107307;1254;61444;-39
2023/06/07 01:32:51;;;;;;;5.70;3.50;;;;;;;18.35;57.41;99824.05;107359;1260;73080;-40
2023/06/07 01:35:19;;;;;;;4.90;3.40;;;;;;;18.35;57.53;99822.00;107316;1255;67566;-40
2023/06/07 01:37:47;;;;;;;7.00;3.40;;;;;;;18.35;57.31;99823.82;107324;1260;71733;-40
2023/06/07 01:40:15;;;;;;;4.50;3.20;;;;;;;18.34;57.33;99824.45;107079;1257;60249;-39
2023/06/07 01:42:43;;;;;;;6.10;3.70;;;;;;;18.34;56.86;99832.30;107082;1257;60353;-39
2023/06/07 01:45:10;;;;;;;7.50;3.40;;;;;;;18.30;55.54;99831.29;107194;1262;73875;-39
2023/06/07 01:47:38;;;;;;;7.20;4.00;;;;;;;18.25;55.16;99832.17;107145;1257;67666;-39
2023/06/07 01:50:08;;;;;;;7.70;4.10;;;;;;;18.21;54.48;99829.14;107125;1260;72739;-40
2023/06/07 01:52:35;;;;;;;;;;;;;;;18.16;54.48;99830.95;107132;1259;203342;-39
2023/06/07 01:56:47;;;;;;;6.60;3.60;;;;;;;18.07;55.75;99829.90;104274;1293;601191;-38
2023/06/07 01:59:18;;;;;;;9.70;4.20;;;;;;;18.07;55.99;99830.38;106516;1266;60062;-39
2023/06/07 02:01:49;;;;;;;6.00;3.90;;;;;;;18.07;55.93;99831.46;106554;1265;59260;-40
2023/06/07 02:04:19;;;;;;;9.60;3.80;;;;;;;18.01;55.45;99832.20;106536;1265;70939;-39
2023/06/07 02:06:48;;;;;;;5.60;3.80;;;;;;;17.96;55.62;99831.91;106734;1267;67539;-40
2023/06/07 02:09:17;;;;;;;7.00;3.70;;;;;;;17.95;55.88;99829.87;106510;1263;220745;-40
2023/06/07 02:11:45;;;;;;;6.40;3.90;;;;;;;17.95;56.09;99829.72;106722;1264;59073;-39
2023/06/07 02:14:13;;;;;;;5.60;3.70;;;;;;;17.94;55.86;99828.38;106695;1264;60061;-39
2023/06/07 02:16:42;;;;;;;6.10;3.70;;;;;;;17.94;55.98;99832.77;106794;1262;70983;-39
2023/06/07 02:19:12;;;;;;;5.50;3.80;;;;;;;17.94;56.13;99831.44;106610;1264;67381;-40
2023/06/07 02:21:49;;;;;;;5.10;3.80;;;;;;;17.93;55.69;99832.30;107074;1260;72671;-39
2023/06/07 02:24:17;;;;;;;7.20;4.10;;;;;;;17.90;55.37;99834.67;107048;1260;60098;-39
2023/06/07 02:26:45;;;;;;;5.40;3.90;;;;;;;17.90;55.68;99837.41;107021;1258;59740;-40
2023/06/07 02:29:13;;;;;;;5.90;3.90;;;;;;;17.90;56.08;99837.02;107026;1264;72217;-39
2023/06/07 02:31:41;;;;;;;5.60;3.80;;;;;;;17.91;56.58;99838.66;107038;1260;67590;-39
2023/06/07 02:34:09;;;;;;;4.60;3.60;;;;;;;17.91;56.48;99839.91;107081;1260;72670;-40
2023/06/07 02:36:40;;;;;;;7.40;3.90;;;;;;;17.90;56.25;99843.14;107220;1256;59618;-39
2023/06/07 02:39:08;;;;;;;6.40;4.00;;;;;;;17.89;55.87;99841.10;107220;1256;60184;-39
2023/06/07 02:41:36;;;;;;;7.20;4.20;;;;;;;17.89;56.12;99841.96;107293;1257;73028;-40
2023/06/07 02:44:04;;;;;;;7.60;4.00;;;;;;;17.89;56.38;99843.14;107316;1257;66566;-39
2023/06/07 02:46:32;;;;;;;7.80;4.10;;;;;;;17.89;56.64;99843.60;107230;1257;72702;-39
2023/06/07 02:48:59;;;;;;;6.90;4.10;;;;;;;17.89;56.30;99851.20;107252;1258;59628;-39
2023/06/07 02:51:28;;;;;;;7.10;3.90;;;;;;;17.88;55.81;99861.08;107098;1258;59513;-39
2023/06/07 02:53:56;;;;;;;9.80;4.20;;;;;;;17.83;56.09;99870.50;107088;1256;73048;-39
2023/06/07 02:56:29;;;;;;;8.70;4.30;;;;;;;17.71;55.60;99865.75;107266;1256;66584;-39
2023/06/07 02:58:57;;;;;;;10.50;5.70;;;;;;;17.64;55.50;99860.66;107250;1257;71407;-40
2023/06/07 03:01:27;;;;;;;7.70;4.70;;;;;;;17.63;56.26;99858.79;107210;1257;59615;-40
2023/06/07 03:03:56;;;;;;;10.20;5.20;;;;;;;17.63;56.02;99857.92;107223;1262;59730;-40
2023/06/07 03:06:28;;;;;;;8.70;4.70;;;;;;;17.60;56.61;99860.05;107253;1258;71744;-39
2023/06/07 03:08:58;;;;;;;11.50;6.10;;;;;;;17.56;56.65;99858.07;107109;1257;66637;-39
2023/06/07 03:11:26;;;;;;;9.30;5.00;;;;;;;17.56;57.07;99860.56;107140;1257;71424;-39
2023/06/07 03:13:55;;;;;;;8.90;4.40;;;;;;;17.56;56.96;99860.34;107115;1260;59623;-39
2023/06/07 03:16:26;;;;;;;6.60;4.00;;;;;;;17.56;56.89;99860.89;107271;1257;59263;-40
2023/06/07 03:18:57;;;;;;;8.00;4.70;;;;;;;17.55;57.07;99861.52;107249;1257;73088;-40
2023/06/07 03:21:25;;;;;;;9.60;4.70;;;;;;;17.55;57.20;99855.64;107158;1257;67908;-39
2023/06/07 03:23:53;;;;;;;6.40;4.30;;;;;;;17.57;57.52;99856.26;107255;1257;71373;-39
2023/06/07 03:26:21;;;;;;;9.30;4.30;;;;;;;17.59;57.61;99856.52;107079;1257;60100;-39
2023/06/07 03:28:50;;;;;;;9.20;5.10;;;;;;;17.63;57.99;99857.85;107163;1258;60006;-40
2023/06/07 03:31:19;;;;;;;6.40;4.20;;;;;;;17.67;58.40;99860.05;107303;1257;73735;-39
2023/06/07 03:33:51;;;;;;;6.90;4.20;;;;;;;17.69;58.90;99860.97;107255;1257;66824;-40
2023/06/07 03:36:20;;;;;;;5.80;3.90;;;;;;;17.74;58.66;99862.91;107072;1257;73011;-39
2023/06/07 03:38:49;;;;;;;11.20;4.60;;;;;;;17.82;58.21;99860.95;107332;1257;59352;-39
2023/06/07 03:41:16;;;;;;;8.10;5.00;;;;;;;17.85;57.87;99859.75;107329;1256;59452;-39
2023/06/07 03:43:44;;;;;;;6.20;4.70;;;;;;;17.89;58.13;99857.32;107347;1257;71933;-40
2023/06/07 03:46:12;;;;;;;7.30;4.50;;;;;;;17.95;58.25;99855.73;107162;1258;67235;-39
2023/06/07 03:48:40;;;;;;;7.00;4.70;;;;;;;18.00;57.98;99858.46;107310;1257;71377;-39
2023/06/07 03:51:08;;;;;;;9.10;4.60;;;;;;;18.05;58.17;99854.91;107278;1256;59714;-40
2023/06/07 03:53:37;;;;;;;9.30;4.70;;;;;;;18.09;59.19;99857.24;107280;1257;60582;-39
2023/06/07 03:56:05;;;;;;;9.60;4.60;;;;;;;18.13;59.64;99857.02;107082;1257;73040;-39
2023/06/07 03:58:33;;;;;;;7.40;4.30;;;;;;;18.15;58.81;99860.92;107195;1260;66440;-39
2023/06/07 04:01:07;;;;;;;9.70;4.60;;;;;;;18.14;58.06;99865.55;107262;1257;72679;-39
2023/06/07 04:03:34;;;;;;;7.40;4.40;;;;;;;18.13;57.83;99861.63;107333;1257;59526;-40
2023/06/07 04:06:05;;;;;;;8.30;4.70;;;;;;;18.11;57.63;99863.20;107252;1257;60039;-39
2023/06/07 04:08:36;;;;;;;8.60;4.90;;;;;;;18.08;57.58;99860.00;107169;1257;73182;-39
2023/06/07 04:11:03;;;;;;;10.20;5.00;;;;;;;18.06;57.44;99862.29;107154;1257;66802;-39
2023/06/07 04:13:31;;;;;;;8.60;5.00;;;;;;;18.05;57.08;99865.58;107291;1261;71581;-39
2023/06/07 04:15:59;;;;;;;9.80;4.60;;;;;;;18.05;56.82;99865.02;107281;1257;60054;-40
2023/06/07 04:18:26;;;;;;;9.70;5.00;;;;;;;18.05;56.58;99865.02;107139;1257;60012;-39
2023/06/07 04:20:54;;;;;;;7.50;4.90;;;;;;;18.06;57.04;99863.61;107272;1257;72280;-39
2023/06/07 04:23:23;;;;;;;7.50;4.80;;;;;;;18.11;56.93;99867.28;107342;1257;66674;-40
2023/06/07 04:25:54;;;;;;;10.50;5.20;;;;;;;18.16;57.40;99869.23;107263;1257;72687;-39
2023/06/07 04:28:23;;;;;;;7.30;4.70;;;;;;;18.22;56.77;99868.89;107286;1257;59622;-39
2023/06/07 04:30:57;;;;;;;8.30;4.50;;;;;;;18.25;56.44;99871.07;107296;1257;59598;-40
2023/06/07 04:33:27;;;;;;;11.80;4.80;;;;;;;18.28;56.59;99873.42;107262;1256;73051;-39
2023/06/07 04:35:57;;;;;;;7.80;4.50;;;;;;;18.32;57.05;99870.81;107312;1257;68089;-39
2023/06/07 04:38:25;;;;;;;13.00;5.00;;;;;;;18.37;56.52;99871.73;107145;1258;71345;-40
2023/06/07 04:41:06;;;;;;;6.80;4.70;;;;;;;18.40;56.34;99870.15;107264;1257;59704;-39
2023/06/07 04:43:37;;;;;;;10.50;5.00;;;;;;;18.40;56.70;99870.61;107242;1257;59475;-40
2023/06/07 04:46:09;;;;;;;10.80;5.10;;;;;;;18.41;56.74;99867.48;107289;1261;73091;-40
2023/06/07 04:48:41;;;;;;;7.80;4.70;;;;;;;18.41;57.07;99870.46;107273;1263;66296;-40
2023/06/07 04:51:09;;;;;;;8.70;4.40;;;;;;;18.41;57.12;99870.77;107151;1260;72699;-39
2023/06/07 04:53:42;;;;;;;9.10;4.50;;;;;;;18.41;57.33;99872.02;107343;1257;59732;-38
2023/06/07 04:56:13;;;;;;;7.60;4.80;;;;;;;18.41;57.53;99871.79;107237;1258;60128;-40
2023/06/07 04:58:42;;;;;;;6.70;4.20;;;;;;;18.43;55.15;99872.95;107183;1257;73027;-40
2023/06/07 05:01:13;;;;;;;5.90;4.30;;;;;;;18.43;53.92;99873.98;107159;1258;67921;-39
2023/06/07 05:03:42;;;;;;;6.80;4.00;;;;;;;18.46;53.14;99871.21;107199;1260;71764;-40
2023/06/07 05:06:18;;;;;;;6.40;4.20;;;;;;;18.50;53.22;99871.66;107287;1257;59685;-40
2023/06/07 05:08:48;;;;;;;6.70;4.00;;;;;;;18.54;52.91;99868.60;107137;1262;60075;-39
2023/06/07 05:11:16;;;;;;;7.50;4.30;;;;;;;18.56;52.11;99871.83;107144;1257;73049;-40
2023/06/07 05:13:46;;;;;;;5.40;4.10;;;;;;;18.60;52.03;99876.67;107351;1258;66292;-41
2023/06/07 05:16:16;;;;;;;6.20;3.90;;;;;;;18.64;51.76;99876.56;107246;1257;73314;-39
2023/06/07 05:18:49;;;;;;;10.70;4.10;;;;;;;18.69;51.74;99875.75;107259;1257;59618;-40
2023/06/07 05:21:17;;;;;;;9.00;4.40;;;;;;;18.73;51.87;99878.31;107277;1261;59240;-40
2023/06/07 05:23:45;;;;;;;5.70;3.80;;;;;;;18.77;52.14;99878.45;107181;1257;71768;-39
2023/06/07 05:26:13;;;;;;;7.70;4.20;;;;;;;18.81;52.69;99881.65;107174;1256;66658;-40
2023/06/07 05:28:41;;;;;;;8.90;4.60;;;;;;;18.84;53.20;99880.37;107290;1257;71404;-40
2023/06/07 05:31:10;;;;;;;7.80;4.40;;;;;;;18.89;53.82;99881.20;107128;1260;59614;-40
2023/06/07 05:33:39;;;;;;;10.70;4.60;;;;;;;18.93;53.99;99880.86;107315;1257;59544;-40
2023/06/07 05:36:07;;;;;;;6.80;4.50;;;;;;;18.98;53.33;99888.13;107207;1256;71839;-40
2023/06/07 05:38:36;;;;;;;8.20;4.10;;;;;;;19.02;52.79;99885.73;107275;1257;67561;-39
2023/06/07 05:41:04;;;;;;;6.80;4.30;;;;;;;19.07;52.18;99886.56;107303;1260;72672;-40
2023/06/07 05:43:32;;;;;;;7.90;4.30;;;;;;;19.12;51.88;99883.47;107304;1257;59634;-40
2023/06/07 05:46:00;;;;;;;7.30;4.50;;;;;;;19.18;51.96;99884.38;107171;1257;60137;-40
2023/06/07 05:48:27;;;;;;;9.00;4.40;;;;;;;19.24;52.18;99885.11;107169;1258;73581;-40
2023/06/07 05:50:57;;;;;;;6.90;4.30;;;;;;;19.30;52.43;99881.05;107297;1261;66642;-40
2023/06/07 05:53:25;;;;;;;6.20;3.70;;;;;;;19.35;52.13;99886.11;107320;1257;72684;-40
2023/06/07 05:55:53;;;;;;;5.40;3.20;;;;;;;19.40;50.82;99886.08;107299;1258;60092;-40
2023/06/07 05:58:21;;;;;;;5.40;3.40;;;;;;;19.46;50.59;99882.51;107303;1258;60299;-40
2023/06/07 06:00:49;;;;;;;6.00;3.90;;;;;;;19.53;50.24;99884.96;107364;1261;73045;-40
2023/06/07 06:03:18;;;;;;;7.20;3.70;;;;;;;19.61;50.30;99886.08;107309;1257;67474;-40
2023/06/07 06:05:46;;;;;;;9.20;3.50;;;;;;;19.70;50.61;99892.05;107328;1260;72488;-40
2023/06/07 06:08:16;;;;;;;7.10;3.40;;;;;;;19.78;50.18;99891.10;107292;1258;60345;-40
2023/06/07 06:10:44;;;;;;;6.70;3.40;;;;;;;19.86;48.89;99895.42;107331;1261;60209;-40
2023/06/07 06:13:12;;;;;;;6.40;3.00;;;;;;;19.92;48.58;99894.57;107321;1263;73899;-40
2023/06/07 06:15:40;;;;;;;7.40;3.10;;;;;;;19.99;48.05;99898.90;107283;1256;65348;-40
2023/06/07 06:18:08;;;;;;;8.30;3.60;;;;;;;20.04;46.57;99896.02;107294;1261;73176;-40
2023/06/07 06:20:36;;;;;;;6.50;3.20;;;;;;;20.08;46.25;99898.88;107305;1258;60555;-40
2023/06/07 06:23:04;;;;;;;7.50;3.70;;;;;;;20.12;46.54;99897.96;107335;1258;60395;-40
2023/06/07 06:25:32;;;;;;;7.40;3.30;;;;;;;20.18;46.55;99897.73;107168;1256;72538;-40
2023/06/07 06:28:01;;;;;;;7.70;3.40;;;;;;;20.23;46.65;99898.39;107290;1257;66406;-40
2023/06/07 06:30:29;;;;;;;5.30;3.50;;;;;;;20.29;47.18;99898.02;107285;1262;72885;-40
2023/06/07 06:32:59;;;;;;;6.80;3.20;;;;;;;20.37;47.48;99897.16;107252;1257;60411;-40
2023/06/07 06:35:28;;;;;;;5.50;3.20;;;;;;;20.45;47.38;99896.03;107304;1260;60300;-40
2023/06/07 06:37:56;;;;;;;5.70;3.30;;;;;;;20.51;46.35;99893.35;107291;1262;71847;-40
2023/06/07 06:40:23;;;;;;;5.10;3.30;;;;;;;20.57;47.08;99894.69;107286;1257;66469;-39
2023/06/07 06:42:51;;;;;;;6.10;3.70;;;;;;;20.63;47.07;99893.52;107261;1262;72658;-40
2023/06/07 06:45:26;;;;;;;5.80;3.40;;;;;;;20.71;47.20;99897.02;107246;1257;60303;-40
2023/06/07 06:47:54;;;;;;;5.30;3.80;;;;;;;20.79;47.13;99897.86;107298;1258;60511;-40
2023/06/07 06:50:22;;;;;;;6.30;3.50;;;;;;;20.84;46.79;99894.32;107282;1257;73841;-40
2023/06/07 06:53:00;;;;;;;6.60;3.10;;;;;;;20.91;47.19;99894.92;107274;1256;66482;-40
2023/06/07 06:55:29;;;;;;;5.40;3.20;;;;;;;20.95;46.61;99897.39;107245;1259;72689;-40
2023/06/07 06:57:56;;;;;;;8.00;3.40;;;;;;;21.00;46.18;99892.19;107258;1263;60437;-40
2023/06/07 07:00:29;;;;;;;6.30;4.00;;;;;;;21.05;45.88;99895.27;107252;1261;60386;-40
2023/06/07 07:02:57;;;;;;;8.90;5.00;;;;;;;21.07;45.77;99894.70;107299;1257;73420;-40
2023/06/07 07:05:25;;;;;;;9.40;6.00;;;;;;;21.09;46.37;99900.25;107268;1260;67579;-40
2023/06/07 07:07:57;;;;;;;19.00;10.30;;;;;;;21.12;46.89;99899.67;107309;1260;72498;-40
2023/06/07 07:10:24;;;;;;;21.10;13.00;;;;;;;21.17;45.96;99898.36;107274;1258;60323;-40
2023/06/07 07:12:52;;;;;;;23.90;14.50;;;;;;;21.19;45.67;99902.42;107275;1257;60430;-40
2023/06/07 07:15:20;;;;;;;26.00;12.70;;;;;;;21.20;45.71;99899.56;107296;1261;73854;-40
2023/06/07 07:17:48;;;;;;;26.70;14.40;;;;;;;21.23;46.27;99901.31;107297;1262;67579;-39
2023/06/07 07:20:17;;;;;;;21.80;12.00;;;;;;;21.29;46.47;99899.27;107314;1257;72771;-39
2023/06/07 07:22:46;;;;;;;18.30;11.20;;;;;;;21.37;46.80;99901.41;107333;1261;60511;-40
2023/06/07 07:25:16;;;;;;;19.00;9.60;;;;;;;21.46;46.93;99902.14;107279;1263;60504;-40
2023/06/07 07:27:44;;;;;;;11.40;7.30;;;;;;;21.54;46.77;99903.02;107265;1257;72559;-40
2023/06/07 07:30:12;;;;;;;11.60;6.80;;;;;;;21.61;45.94;99904.64;107307;1257;67582;-40
2023/06/07 07:32:40;;;;;;;15.20;7.10;;;;;;;21.65;46.02;99905.98;107335;1257;72939;-40
2023/06/07 07:35:08;;;;;;;8.90;5.10;;;;;;;21.73;46.13;99910.33;107258;1263;60565;-40
2023/06/07 07:37:35;;;;;;;10.90;4.70;;;;;;;21.80;45.09;99912.27;107266;1262;60401;-40
2023/06/07 07:40:05;;;;;;;7.70;4.70;;;;;;;21.85;45.70;99909.42;107211;1257;73827;-40
2023/06/07 07:42:33;;;;;;;7.90;4.30;;;;;;;21.94;45.78;99910.69;107322;1257;66334;-40
2023/06/07 07:45:01;;;;;;;7.80;4.10;;;;;;;22.03;45.41;99914.00;107288;1261;72671;-40
2023/06/07 07:47:29;;;;;;;8.20;3.60;;;;;;;22.12;45.54;99909.81;107291;1262;60370;-40
2023/06/07 07:49:56;;;;;;;10.40;3.70;;;;;;;22.23;45.41;99912.27;107273;1261;60634;-40
2023/06/07 07:52:25;;;;;;;8.40;3.70;;;;;;;22.35;45.33;99918.11;107258;1263;72561;-39
2023/06/07 07:54:54;;;;;;;6.90;3.50;;;;;;;22.46;45.23;99916.23;107299;1258;66423;-40
2023/06/07 07:57:22;;;;;;;5.00;3.40;;;;;;;22.53;44.96;99917.04;107254;1261;71321;-40
2023/06/07 07:59:49;;;;;;;5.60;3.20;;;;;;;22.62;44.77;99918.18;107246;1257;60395;-40
2023/06/07 08:02:17;;;;;;;5.90;3.60;;;;;;;22.71;45.07;99921.71;107257;1256;60322;-39
2023/06/07 08:04:45;;;;;;;5.50;3.50;;;;;;;22.84;45.05;99921.61;107322;1257;74316;-40
2023/06/07 08:07:16;;;;;;;6.10;3.40;;;;;;;22.99;44.86;99918.34;107287;1257;68223;-40
2023/06/07 08:09:44;;;;;;;5.40;3.30;;;;;;;23.13;44.23;99917.00;107304;1258;72752;-39
2023/06/07 08:12:11;;;;;;;5.90;3.60;;;;;;;23.24;43.87;99916.65;107265;1258;60306;-39
2023/06/07 08:14:39;;;;;;;4.70;3.20;;;;;;;23.38;42.41;99919.46;107261;1257;60043;-40
2023/06/07 08:17:07;;;;;;;8.00;3.90;;;;;;;23.47;42.17;99920.21;107296;1257;73840;-40
2023/06/07 08:19:34;;;;;;;4.80;3.20;;;;;;;23.55;42.10;99919.32;107248;1257;68320;-40
2023/06/07 08:22:02;;;;;;;6.40;3.70;;;;;;;23.61;42.24;99918.77;107269;1257;72229;-40
2023/06/07 08:24:30;;;;;;;5.70;3.60;;;;;;;23.68;42.56;99914.64;107299;1260;60280;-40
2023/06/07 08:26:58;;;;;;;5.30;3.20;;;;;;;23.77;42.60;99918.75;107285;1257;60304;-40
2023/06/07 08:29:25;;;;;;;5.60;3.10;;;;;;;23.85;42.44;99917.77;107258;1257;73835;-40
2023/06/07 08:31:53;;;;;;;8.90;4.00;;;;;;;23.93;42.50;99922.92;107284;1258;67585;-40
2023/06/07 08:34:27;;;;;;;4.60;3.20;;;;;;;23.96;41.67;99914.68;107250;1258;71202;-40
2023/06/07 08:36:58;;;;;;;6.10;3.50;;;;;;;24.02;41.18;99925.37;107240;1258;60421;-40
2023/06/07 08:39:26;;;;;;;8.90;3.80;;;;;;;23.99;40.93;99927.28;107290;1257;60516;-40
2023/06/07 08:41:53;;;;;;;6.40;3.10;;;;;;;23.96;41.36;99927.61;107279;1257;73939;-40
2023/06/07 08:44:21;;;;;;;7.30;3.50;;;;;;;23.99;41.25;99923.01;107290;1257;66462;-40
2023/06/07 08:46:49;;;;;;;6.00;3.50;;;;;;;24.07;41.51;99920.58;107248;1257;71607;-40
2023/06/07 08:49:17;;;;;;;5.60;3.50;;;;;;;24.12;40.81;99921.29;107149;1256;60463;-40
2023/06/07 08:51:44;;;;;;;9.80;4.00;;;;;;;24.16;41.41;99922.39;107242;1262;59988;-39
2023/06/07 08:54:13;;;;;;;6.90;4.10;;;;;;;24.20;41.17;99919.68;107262;1260;72522;-40
2023/06/07 08:56:41;;;;;;;7.10;3.60;;;;;;;24.24;40.83;99920.12;107255;1257;67461;-39
2023/06/07 08:59:09;;;;;;;5.50;3.90;;;;;;;24.30;41.47;99922.27;107261;1258;72681;-39
2023/06/07 09:01:37;;;;;;;6.70;3.90;;;;;;;24.40;41.67;99919.04;107257;1258;60481;-40
2023/06/07 09:04:06;;;;;;;4.60;3.40;;;;;;;24.48;41.28;99916.10;107325;1261;60332;-40
2023/06/07 09:06:35;;;;;;;8.00;3.40;;;;;;;24.51;41.73;99921.08;107355;1257;73925;-40
2023/06/07 09:09:04;;;;;;;5.40;3.80;;;;;;;24.53;41.93;99921.04;107287;1257;67718;-40
2023/06/07 09:11:32;;;;;;;8.90;4.20;;;;;;;24.54;41.11;99921.49;107325;1258;71730;-40
2023/06/07 09:14:00;;;;;;;14.20;5.30;;;;;;;24.53;41.83;99917.08;107351;1258;60578;-40
2023/06/07 09:16:28;;;;;;;8.50;3.90;;;;;;;24.56;41.37;99920.16;107294;1257;60286;-40
2023/06/07 09:18:56;;;;;;;7.30;3.90;;;;;;;24.53;40.62;99921.42;107300;1258;74001;-40
2023/06/07 09:21:28;;;;;;;7.00;3.80;;;;;;;24.49;41.17;99921.23;107287;1257;68086;-40
2023/06/07 09:23:59;;;;;;;8.70;3.70;;;;;;;24.49;41.94;99920.43;107278;1258;72549;-40
2023/06/07 09:26:45;;;;;;;8.00;3.60;;;;;;;24.48;41.95;99922.36;107265;1257;59340;-40
2023/06/07 09:29:15;;;;;;;9.90;4.00;;;;;;;24.42;41.67;99921.52;107183;1258;60767;-40
2023/06/07 09:31:43;;;;;;;10.30;3.60;;;;;;;24.33;41.97;99921.52;107256;1257;73829;-40
2023/06/07 09:34:21;;;;;;;7.90;3.80;;;;;;;24.25;41.89;99923.73;107252;1257;67898;-40
2023/06/07 09:36:50;;;;;;;7.20;3.80;;;;;;;24.17;42.61;99924.98;107287;1257;72726;-40
2023/06/07 09:39:23;;;;;;;7.30;3.90;;;;;;;24.15;43.14;99925.50;107296;1257;60428;-41
2023/06/07 09:41:52;;;;;;;5.40;3.70;;;;;;;24.16;42.70;99924.77;107370;1257;59660;-40
2023/06/07 09:44:29;;;;;;;8.00;3.70;;;;;;;24.15;42.63;99930.40;107299;1258;72649;-40
2023/06/07 09:46:58;;;;;;;9.00;3.80;;;;;;;24.16;42.90;99926.35;107322;1256;66616;-40
2023/06/07 09:49:35;;;;;;;9.00;3.70;;;;;;;24.15;42.69;99931.52;107305;1257;72720;-40
2023/06/07 09:52:04;;;;;;;7.30;4.10;;;;;;;24.12;43.19;99933.17;107354;1260;60552;-40
2023/06/07 09:54:40;;;;;;;7.70;3.90;;;;;;;24.12;43.51;99931.52;107307;1260;59598;-40
2023/06/07 09:57:26;;;;;;;6.80;4.10;;;;;;;24.18;43.74;99931.75;107342;1257;74289;-40
2023/06/07 10:02:41;;;;;;;6.40;3.60;;;;;;;24.27;43.76;99929.56;107265;1258;72476;-40
2023/06/07 10:05:09;;;;;;;6.00;4.00;;;;;;;24.30;43.83;99930.09;107340;1258;60280;-40
2023/06/07 10:07:40;;;;;;;8.20;3.60;;;;;;;24.32;43.87;99927.52;107321;1256;60334;-40
2023/06/07 10:10:12;;;;;;;6.20;3.40;;;;;;;24.37;44.17;99928.23;107263;1256;73850;-40
2023/06/07 10:12:42;;;;;;;5.70;3.60;;;;;;;24.44;44.04;99927.16;107354;1257;66895;-40
2023/06/07 10:15:23;;;;;;;8.50;4.20;;;;;;;24.46;43.69;99924.40;107288;1257;72718;-40
2023/06/07 10:18:11;;;;;;;8.00;4.40;;;;;;;24.43;43.93;99925.21;107317;1260;60401;-40
2023/06/07 10:20:41;;;;;;;13.30;5.30;;;;;;;24.39;43.93;99925.15;107307;1257;60509;-40
2023/06/07 10:23:10;;;;;;;;;;;;;;;24.38;43.95;99924.17;107324;1258;73841;-40
2023/06/07 10:25:41;;;;;;;7.60;4.40;;;;;;;24.37;43.90;99921.89;107304;1258;68092;-40
2023/06/07 10:28:23;;;;;;;6.90;3.70;;;;;;;24.40;43.73;99923.47;107190;1257;72981;-40
2023/06/07 10:31:03;;;;;;;10.90;3.70;;;;;;;24.43;43.55;99923.63;107279;1258;60869;-40
2023/06/07 10:33:32;;;;;;;9.30;4.50;;;;;;;24.43;44.25;99920.21;107259;1257;60352;-40
2023/06/07 10:36:00;;;;;;;8.30;4.00;;;;;;;24.50;44.44;99915.02;107334;1257;73876;-40
2023/06/07 10:38:32;;;;;;;11.40;4.20;;;;;;;24.62;44.52;99918.45;107320;1260;66752;-40
2023/06/07 10:41:04;;;;;;;6.80;4.10;;;;;;;24.74;44.30;99918.21;107252;1257;72486;-40
2023/06/07 10:43:32;;;;;;;8.90;4.20;;;;;;;24.83;44.39;99917.15;107279;1257;60453;-40
2023/06/07 10:46:25;;;;;;;6.30;3.90;;;;;;;24.93;44.43;99913.77;107209;1257;60446;-40
2023/06/07 10:48:57;;;;;;;5.70;3.90;;;;;;;24.99;43.35;99917.37;107287;1257;73782;-40
2023/06/07 10:51:44;;;;;;;8.00;3.50;;;;;;;24.96;43.64;99920.23;107209;1256;67740;-40
2023/06/07 10:54:19;;;;;;;6.10;4.30;;;;;;;25.03;42.74;99920.50;107276;1257;72771;-40
2023/06/07 10:56:47;;;;;;;8.70;3.90;;;;;;;25.09;42.82;99916.60;107114;1261;60348;-40
2023/06/07 10:59:15;;;;;;;6.90;4.30;;;;;;;25.14;42.62;99921.59;107111;1261;60054;-40
2023/06/07 11:01:46;;;;;;;6.10;3.80;;;;;;;25.17;42.47;99926.16;107273;1257;73844;-40
2023/06/07 11:04:30;;;;;;;9.10;3.80;;;;;;;25.22;42.38;99919.09;107314;1256;67575;-40
2023/06/07 11:07:14;;;;;;;5.70;3.70;;;;;;;25.34;42.94;99921.11;107320;1260;73191;-40
2023/06/07 11:09:42;;;;;;;5.00;3.50;;;;;;;25.46;42.29;99916.83;107327;1258;60520;-40
2023/06/07 11:12:35;;;;;;;7.80;3.80;;;;;;;25.52;42.49;99920.36;107307;1257;60552;-40
2023/06/07 11:15:35;;;;;;;7.30;4.20;;;;;;;25.60;42.24;99913.77;107329;1257;74165;-40
2023/06/07 11:18:07;;;;;;;8.20;3.60;;;;;;;25.68;41.87;99915.77;107337;1257;67592;-40
2023/06/07 11:20:44;;;;;;;8.40;3.70;;;;;;;25.71;40.96;99914.02;107294;1256;73164;-41
2023/06/07 11:23:22;;;;;;;7.40;3.50;;;;;;;25.67;40.81;99912.50;107313;1258;60444;-40
2023/06/07 11:25:57;;;;;;;9.10;4.00;;;;;;;25.61;41.32;99912.63;107265;1256;60363;-40
2023/06/07 11:28:27;;;;;;;4.30;3.50;;;;;;;25.60;41.17;99909.10;107315;1257;73870;-40
2023/06/07 11:30:55;;;;;;;5.20;3.90;;;;;;;25.53;41.61;99903.09;107336;1256;65990;-40
2023/06/07 11:33:25;;;;;;;7.90;3.40;;;;;;;25.47;41.61;99903.78;107380;1260;72761;-40
2023/06/07 11:35:53;;;;;;;5.70;3.70;;;;;;;25.39;41.64;99902.79;107331;1257;59388;-41
2023/06/07 11:38:21;;;;;;;7.70;3.50;;;;;;;25.31;41.67;99899.77;107311;1257;59314;-40
2023/06/07 11:40:49;;;;;;;5.40;3.40;;;;;;;25.21;40.80;99898.85;107352;1257;72504;-40